createdAt,value
2019-05-21T00:00:39.910Z,22.70
2019-05-21T00:03:10.717Z,24.60
2019-05-21T00:05:41.551Z,24.27
2019-05-21T00:08:12.300Z,24.13
2019-05-21T00:10:42.880Z,24.00
2019-05-21T00:13:13.651Z,25.20
2019-05-21T00:15:44.516Z,25.07
2019-05-21T00:18:16.575Z,24.47
2019-05-21T00:20:47.585Z,25.63
2019-05-21T00:23:18.375Z,25.17
2019-05-21T00:25:49.167Z,25.60
2019-05-21T00:28:40.795Z,25.97
2019-05-21T00:31:50.496Z,24.77
2019-05-21T00:34:56.911Z,23.33
2019-05-21T00:38:04.175Z,24.43
2019-05-21T00:41:11.363Z,24.47
2019-05-21T00:43:53.900Z,24.40
2019-05-21T00:46:24.649Z,25.80
2019-05-21T00:48:55.509Z,23.70
2019-05-21T00:51:26.585Z,23.47
2019-05-21T00:53:57.711Z,23.07
2019-05-21T00:56:28.654Z,23.07
2019-05-21T00:58:59.540Z,23.73
2019-05-21T01:01:30.314Z,22.07
2019-05-21T01:04:01.377Z,22.60
2019-05-21T01:06:32.270Z,23.60
2019-05-21T01:09:03.136Z,23.00
2019-05-21T01:11:34.036Z,22.07
2019-05-21T01:14:05.183Z,22.63
2019-05-21T01:16:36.143Z,22.93
2019-05-21T01:19:06.957Z,22.53
2019-05-21T01:21:37.726Z,23.17
2019-05-21T01:24:08.514Z,23.00
2019-05-21T01:26:39.367Z,21.73
2019-05-21T01:29:10.042Z,21.37
2019-05-21T01:31:42.193Z,23.07
2019-05-21T01:34:12.689Z,22.27
2019-05-21T01:36:43.224Z,26.17
2019-05-21T01:39:14.070Z,20.77
2019-05-21T01:41:44.826Z,22.80
2019-05-21T01:44:15.643Z,22.47
2019-05-21T01:46:46.478Z,22.60
2019-05-21T01:49:17.210Z,22.67
2019-05-21T01:51:48.062Z,23.73
2019-05-21T01:54:18.562Z,22.60
2019-05-21T01:56:49.414Z,22.37
2019-05-21T01:59:20.234Z,23.03
2019-05-21T02:01:51.082Z,22.80
2019-05-21T02:04:21.921Z,22.80
2019-05-21T02:06:53.184Z,22.23
2019-05-21T02:09:23.899Z,24.63
2019-05-21T02:11:54.667Z,23.20
2019-05-21T02:14:25.567Z,23.37
2019-05-21T02:16:56.430Z,24.20
2019-05-21T02:19:27.142Z,23.07
2019-05-21T02:21:58.088Z,24.53
2019-05-21T02:24:28.813Z,23.67
2019-05-21T02:26:59.545Z,23.60
2019-05-21T02:29:30.281Z,23.37
2019-05-21T02:32:00.851Z,22.73
2019-05-21T02:34:31.641Z,23.83
2019-05-21T02:37:05.850Z,23.87
2019-05-21T02:39:34.956Z,23.17
2019-05-21T02:42:05.685Z,23.43
2019-05-21T02:44:36.431Z,24.80
2019-05-21T02:47:06.951Z,23.07
2019-05-21T02:49:38.856Z,23.37
2019-05-21T02:52:15.483Z,24.07
2019-05-21T02:54:46.600Z,24.20
2019-05-21T02:57:17.786Z,23.87
2019-05-21T02:59:50.359Z,25.50
2019-05-21T03:02:33.480Z,24.80
2019-05-21T03:05:06.675Z,23.87
2019-05-21T03:07:37.416Z,25.03
2019-05-21T03:10:08.354Z,23.50
2019-05-21T03:12:39.184Z,25.33
2019-05-21T03:15:11.862Z,24.07
2019-05-21T03:17:43.402Z,24.97
2019-05-21T03:20:14.257Z,25.37
2019-05-21T03:22:45.149Z,23.57
2019-05-21T03:25:15.913Z,24.70
2019-05-21T03:27:46.762Z,25.33
2019-05-21T03:30:19.254Z,25.17
2019-05-21T03:32:49.758Z,25.40
2019-05-21T03:35:20.569Z,25.07
2019-05-21T03:37:51.543Z,26.10
2019-05-21T03:40:22.476Z,24.37
2019-05-21T03:42:54.857Z,24.40
2019-05-21T03:45:25.733Z,25.40
2019-05-21T03:47:56.684Z,25.87
2019-05-21T03:50:27.464Z,23.80
2019-05-21T03:52:58.221Z,25.27
2019-05-21T03:55:29.971Z,23.17
2019-05-21T03:58:00.914Z,24.23
2019-05-21T04:00:31.730Z,22.87
2019-05-21T04:03:02.273Z,24.40
2019-05-21T04:05:32.685Z,24.10
2019-05-21T04:08:03.547Z,24.40
2019-05-21T04:10:34.355Z,22.93
2019-05-21T04:13:08.646Z,22.37
2019-05-21T04:16:01.044Z,23.47
2019-05-21T04:18:33.550Z,22.50
2019-05-21T04:21:04.410Z,21.93
2019-05-21T04:23:35.290Z,22.40
2019-05-21T04:26:07.232Z,20.83
2019-05-21T04:28:38.085Z,22.17
2019-05-21T04:31:08.912Z,20.80
2019-05-21T04:33:39.508Z,22.33
2019-05-21T04:36:10.284Z,21.87
2019-05-21T04:38:40.753Z,21.20
2019-05-21T04:41:11.570Z,21.07
2019-05-21T04:43:42.164Z,20.93
2019-05-21T04:46:12.897Z,21.30
2019-05-21T04:48:46.611Z,20.77
2019-05-21T04:51:17.368Z,20.87
2019-05-21T04:53:48.410Z,18.73
2019-05-21T04:56:19.343Z,18.27
2019-05-21T04:58:49.831Z,18.13
2019-05-21T05:01:20.724Z,18.33
2019-05-21T05:03:51.600Z,17.17
2019-05-21T05:06:22.471Z,18.03
2019-05-21T05:08:53.217Z,17.43
2019-05-21T05:11:23.953Z,17.13
2019-05-21T05:13:54.478Z,16.97
2019-05-21T05:16:25.465Z,16.07
2019-05-21T05:18:55.938Z,16.67
2019-05-21T05:21:26.913Z,16.73
2019-05-21T05:23:57.795Z,17.37
2019-05-21T05:26:28.563Z,17.03
2019-05-21T05:28:59.499Z,16.73
2019-05-21T05:31:32.129Z,16.52
2019-05-21T05:34:03.114Z,15.80
2019-05-21T05:36:34.064Z,16.15
2019-05-21T05:39:07.553Z,16.53
2019-05-21T05:41:38.457Z,17.02
2019-05-21T05:44:10.862Z,16.40
2019-05-21T05:46:41.688Z,17.23
2019-05-21T05:49:14.085Z,15.63
2019-05-21T05:51:44.858Z,19.93
2019-05-21T05:54:15.660Z,16.90
2019-05-21T05:56:46.121Z,15.87
2019-05-21T05:59:16.904Z,15.97
2019-05-21T06:01:47.917Z,16.07
2019-05-21T06:04:18.818Z,16.60
2019-05-21T06:06:49.624Z,18.20
2019-05-21T06:09:20.533Z,16.10
2019-05-21T06:11:51.289Z,15.08
2019-05-21T06:14:22.147Z,16.70
2019-05-21T06:16:52.965Z,17.13
2019-05-21T06:19:23.801Z,16.55
2019-05-21T06:21:54.740Z,17.17
2019-05-21T06:24:25.331Z,16.90
2019-05-21T06:26:56.116Z,16.80
2019-05-21T06:29:27.049Z,16.70
2019-05-21T06:31:57.919Z,15.77
2019-05-21T06:34:28.769Z,15.87
2019-05-21T06:36:59.626Z,16.63
2019-05-21T06:39:30.694Z,15.85
2019-05-21T06:42:01.535Z,17.17
2019-05-21T06:44:32.415Z,16.70
2019-05-21T06:47:03.217Z,17.40
2019-05-21T06:49:34.052Z,16.37
2019-05-21T06:52:05.453Z,15.67
2019-05-21T06:54:36.356Z,15.97
2019-05-21T06:57:07.230Z,16.40
2019-05-21T06:59:38.030Z,15.63
2019-05-21T07:02:08.868Z,18.57
2019-05-21T07:04:39.828Z,14.60
2019-05-21T07:07:10.302Z,14.00
2019-05-21T07:09:41.084Z,14.10
2019-05-21T07:12:11.800Z,13.43
2019-05-21T07:14:42.701Z,13.53
2019-05-21T07:17:13.452Z,14.43
2019-05-21T07:19:44.391Z,29.40
2019-05-21T07:22:14.859Z,21.37
2019-05-21T07:24:45.653Z,14.03
2019-05-21T07:27:16.407Z,13.05
2019-05-21T07:29:47.421Z,16.50
2019-05-21T07:32:18.368Z,30.00
2019-05-21T07:34:49.225Z,21.62
2019-05-21T07:37:20.110Z,16.97
2019-05-21T07:39:50.931Z,13.78
2019-05-21T07:42:21.732Z,12.30
2019-05-21T07:44:52.562Z,11.17
2019-05-21T07:47:23.536Z,11.30
2019-05-21T07:49:54.350Z,14.23
2019-05-21T07:52:25.167Z,10.20
2019-05-21T07:54:55.917Z,10.95
2019-05-21T07:57:26.798Z,10.58
2019-05-21T07:59:57.721Z,8.95
2019-05-21T08:02:28.531Z,8.10
2019-05-21T08:04:59.825Z,7.25
2019-05-21T08:07:30.291Z,8.50
2019-05-21T08:10:01.137Z,7.58
2019-05-21T08:12:38.947Z,8.50
2019-05-21T08:15:07.538Z,7.90
2019-05-21T08:17:37.910Z,9.43
2019-05-21T08:20:11.131Z,7.28
2019-05-21T08:22:42.243Z,8.28
2019-05-21T08:25:16.030Z,7.05
2019-05-21T08:27:46.602Z,6.47
2019-05-21T08:30:17.691Z,6.58
2019-05-21T08:32:48.710Z,8.20
2019-05-21T08:35:19.901Z,7.75
2019-05-21T08:37:50.569Z,9.63
2019-05-21T08:40:21.873Z,7.35
2019-05-21T08:42:54.307Z,7.12
2019-05-21T08:45:25.592Z,6.42
2019-05-21T08:47:57.002Z,6.03
2019-05-21T08:50:27.959Z,8.08
2019-05-21T08:52:58.972Z,6.50
2019-05-21T08:55:29.863Z,6.30
2019-05-21T08:58:06.952Z,7.25
2019-05-21T09:00:33.144Z,8.18
2019-05-21T09:03:04.076Z,5.42
2019-05-21T09:05:35.095Z,5.22
2019-05-21T09:08:06.015Z,5.28
2019-05-21T09:10:39.994Z,4.90
2019-05-21T09:13:10.929Z,9.00
2019-05-21T09:15:41.532Z,9.25
2019-05-21T09:18:12.450Z,7.78
2019-05-21T09:20:43.398Z,5.33
2019-05-21T09:23:14.274Z,5.65
2019-05-21T09:25:45.250Z,5.05
2019-05-21T09:28:16.267Z,6.45
2019-05-21T09:30:47.139Z,5.97
2019-05-21T09:33:18.042Z,6.15
2019-05-21T09:35:48.941Z,11.63
2019-05-21T09:38:19.750Z,5.97
2019-05-21T09:40:50.661Z,4.47
2019-05-21T09:43:21.446Z,4.85
2019-05-21T09:45:52.052Z,4.90
2019-05-21T09:48:22.988Z,5.65
2019-05-21T09:50:53.923Z,6.05
2019-05-21T09:53:24.444Z,13.03
2019-05-21T09:55:55.435Z,4.53
2019-05-21T09:58:27.938Z,4.60
2019-05-21T10:01:18.194Z,4.67
2019-05-21T10:03:50.766Z,4.80
2019-05-21T10:06:21.952Z,4.60
2019-05-21T10:08:54.392Z,4.80
2019-05-21T10:11:25.329Z,6.08
2019-05-21T10:13:56.198Z,5.20
2019-05-21T10:16:27.011Z,4.67
2019-05-21T10:18:57.892Z,5.22
2019-05-21T10:21:28.784Z,5.00
2019-05-21T10:23:59.556Z,5.35
2019-05-21T10:26:30.073Z,4.72
2019-05-21T10:29:00.951Z,4.30
2019-05-21T10:31:32.234Z,5.20
2019-05-21T10:34:03.045Z,5.42
2019-05-21T10:36:35.288Z,5.50
2019-05-21T10:39:07.960Z,4.85
2019-05-21T10:41:40.688Z,4.60
2019-05-21T10:44:11.768Z,5.78
2019-05-21T10:46:42.855Z,4.10
2019-05-21T10:49:13.968Z,4.75
2019-05-21T10:51:44.960Z,5.10
2019-05-21T10:54:16.398Z,4.97
2019-05-21T10:56:48.631Z,4.92
2019-05-21T10:59:19.644Z,4.30
2019-05-21T11:01:58.198Z,4.70
2019-05-21T11:04:33.375Z,4.50
2019-05-21T11:07:04.409Z,5.50
2019-05-21T11:09:35.163Z,4.80
2019-05-21T11:12:07.733Z,4.30
2019-05-21T11:14:38.693Z,4.53
2019-05-21T11:17:11.200Z,4.03
2019-05-21T11:19:42.149Z,3.95
2019-05-21T11:22:12.766Z,4.58
2019-05-21T11:24:43.787Z,3.95
2019-05-21T11:27:15.740Z,3.98
2019-05-21T11:29:46.353Z,4.40
2019-05-21T11:32:17.336Z,4.58
2019-05-21T11:34:50.263Z,3.87
2019-05-21T11:37:20.930Z,4.08
2019-05-21T11:39:51.846Z,4.17
2019-05-21T11:42:22.743Z,4.65
2019-05-21T11:44:53.622Z,4.83
2019-05-21T11:47:25.935Z,4.70
2019-05-21T11:49:56.913Z,4.40
2019-05-21T11:52:27.977Z,5.03
2019-05-21T11:54:58.958Z,4.70
2019-05-21T11:57:32.236Z,4.78
2019-05-21T12:00:03.557Z,4.87
2019-05-21T12:02:34.691Z,4.55
2019-05-21T12:05:07.447Z,4.83
2019-05-21T12:07:38.395Z,5.03
2019-05-21T12:10:17.119Z,5.25
2019-05-21T12:12:47.959Z,5.00
2019-05-21T12:15:19.111Z,5.37
2019-05-21T12:17:50.154Z,4.85
2019-05-21T12:20:35.265Z,5.05
2019-05-21T12:22:53.618Z,7.58
2019-05-21T12:25:24.665Z,5.25
2019-05-21T12:27:55.652Z,6.22
2019-05-21T12:30:26.639Z,4.95
2019-05-21T12:32:57.788Z,5.42
2019-05-21T12:35:28.322Z,5.08
2019-05-21T12:38:00.531Z,4.87
2019-05-21T12:40:31.541Z,4.95
2019-05-21T12:43:02.307Z,5.47
2019-05-21T12:45:33.413Z,5.08
2019-05-21T12:48:04.378Z,6.15
2019-05-21T12:50:35.243Z,5.00
2019-05-21T12:53:05.989Z,5.03
2019-05-21T12:55:36.852Z,4.78
2019-05-21T12:58:07.355Z,5.00
2019-05-21T13:00:38.717Z,4.67
2019-05-21T13:03:09.663Z,4.62
2019-05-21T13:05:40.693Z,6.53
2019-05-21T13:08:11.519Z,5.08
2019-05-21T13:10:42.384Z,5.53
2019-05-21T13:13:13.412Z,5.90
2019-05-21T13:15:44.263Z,5.20
2019-05-21T13:18:15.297Z,5.30
2019-05-21T13:20:47.770Z,5.70
2019-05-21T13:23:18.897Z,4.92
2019-05-21T13:25:50.441Z,4.67
2019-05-21T13:28:21.792Z,5.08
2019-05-21T13:30:52.642Z,5.33
2019-05-21T13:33:23.715Z,4.70
2019-05-21T13:35:54.219Z,4.50
2019-05-21T13:38:26.377Z,4.95
2019-05-21T13:40:58.061Z,4.70
2019-05-21T13:43:28.957Z,4.65
2019-05-21T13:45:59.829Z,3.90
2019-05-21T13:48:30.365Z,4.45
2019-05-21T13:51:01.562Z,4.45
2019-05-21T13:53:32.683Z,4.50
2019-05-21T13:56:03.584Z,5.33
2019-05-21T13:58:34.789Z,5.08
2019-05-21T14:01:06.679Z,5.97
2019-05-21T14:03:37.831Z,4.75
2019-05-21T14:06:08.404Z,4.90
2019-05-21T14:08:39.055Z,5.00
2019-05-21T14:11:13.071Z,5.85
2019-05-21T14:13:45.402Z,6.05
2019-05-21T14:16:16.360Z,5.90
2019-05-21T14:18:47.417Z,8.03
2019-05-21T14:21:18.240Z,6.85
2019-05-21T14:23:48.939Z,6.60
2019-05-21T14:26:19.789Z,8.15
2019-05-21T14:28:50.724Z,7.58
2019-05-21T14:31:21.567Z,8.93
2019-05-21T14:33:52.697Z,7.97
2019-05-21T14:36:23.783Z,7.90
2019-05-21T14:38:56.319Z,8.08
2019-05-21T14:41:27.319Z,8.58
2019-05-21T14:43:58.405Z,8.33
2019-05-21T14:46:28.820Z,7.70
2019-05-21T14:48:59.739Z,7.75
2019-05-21T14:51:30.574Z,7.67
2019-05-21T14:54:05.081Z,8.23
2019-05-21T14:56:35.936Z,7.12
2019-05-21T14:59:07.063Z,7.22
2019-05-21T15:01:40.824Z,7.12
2019-05-21T15:04:12.065Z,8.03
2019-05-21T15:06:42.920Z,7.53
2019-05-21T15:09:13.969Z,7.95
2019-05-21T15:11:44.701Z,6.80
2019-05-21T15:14:15.684Z,7.00
2019-05-21T15:16:46.236Z,7.25
2019-05-21T15:19:17.158Z,6.87
2019-05-21T15:21:49.454Z,7.00
2019-05-21T15:24:20.378Z,7.20
2019-05-21T15:26:51.204Z,7.10
2019-05-21T15:29:22.050Z,7.90
2019-05-21T15:31:52.787Z,7.85
2019-05-21T15:34:23.608Z,7.67
2019-05-21T15:36:54.441Z,7.80
2019-05-21T15:39:25.304Z,7.45
2019-05-21T15:41:56.300Z,6.08
2019-05-21T15:44:27.150Z,6.30
2019-05-21T15:46:58.054Z,6.50
2019-05-21T15:49:36.551Z,6.12
2019-05-21T15:52:01.846Z,6.08
2019-05-21T15:54:32.865Z,6.25
2019-05-21T15:57:03.804Z,4.20
2019-05-21T15:59:34.646Z,4.53
2019-05-21T16:02:05.564Z,4.53
2019-05-21T16:04:36.517Z,4.72
2019-05-21T16:07:07.370Z,4.53
2019-05-21T16:09:38.803Z,4.65
2019-05-21T16:12:09.750Z,5.62
2019-05-21T16:14:40.700Z,4.87
2019-05-21T16:17:11.625Z,4.60
2019-05-21T16:19:42.744Z,5.12
2019-05-21T16:22:13.238Z,5.97
2019-05-21T16:24:44.144Z,6.08
2019-05-21T16:27:15.082Z,5.97
2019-05-21T16:29:46.580Z,6.90
2019-05-21T16:32:17.612Z,5.83
2019-05-21T16:34:48.643Z,6.45
2019-05-21T16:37:19.654Z,6.15
2019-05-21T16:39:50.984Z,6.67
2019-05-21T16:42:21.939Z,6.70
2019-05-21T16:44:52.960Z,7.10
2019-05-21T16:47:24.423Z,6.58
2019-05-21T16:49:55.151Z,5.97
2019-05-21T16:52:26.104Z,6.03
2019-05-21T16:54:57.127Z,5.87
2019-05-21T16:57:28.069Z,5.53
2019-05-21T16:59:59.062Z,6.40
2019-05-21T17:02:29.785Z,6.75
2019-05-21T17:05:01.020Z,5.72
2019-05-21T17:07:32.115Z,6.15
2019-05-21T17:10:08.069Z,5.67
2019-05-21T17:12:39.072Z,5.20
2019-05-21T17:15:10.613Z,5.10
2019-05-21T17:17:41.722Z,4.78
2019-05-21T17:20:13.212Z,4.60
2019-05-21T17:22:43.730Z,5.00
2019-05-21T17:25:16.965Z,5.20
2019-05-21T17:27:47.963Z,4.87
2019-05-21T17:30:19.432Z,5.30
2019-05-21T17:32:50.124Z,4.80
2019-05-21T17:35:21.034Z,5.78
2019-05-21T17:37:51.861Z,6.30
2019-05-21T17:40:22.863Z,6.95
2019-05-21T17:42:56.790Z,5.53
2019-05-21T17:45:27.608Z,6.85
2019-05-21T17:47:58.525Z,6.17
2019-05-21T17:50:29.414Z,6.08
2019-05-21T17:52:59.817Z,5.55
2019-05-21T17:55:32.191Z,5.60
2019-05-21T17:58:03.356Z,6.60
2019-05-21T18:00:46.293Z,6.20
2019-05-21T18:03:17.607Z,5.15
2019-05-21T18:05:50.075Z,6.45
2019-05-21T18:08:21.128Z,6.08
2019-05-21T18:10:52.764Z,6.65
2019-05-21T18:13:24.646Z,5.62
2019-05-21T18:15:57.699Z,5.45
2019-05-21T18:18:30.562Z,8.10
2019-05-21T18:21:02.668Z,7.60
2019-05-21T18:23:34.033Z,7.03
2019-05-21T18:26:05.695Z,6.80
2019-05-21T18:28:36.639Z,6.97
2019-05-21T18:31:08.177Z,7.47
2019-05-21T18:33:39.414Z,6.65
2019-05-21T18:36:10.409Z,6.35
2019-05-21T18:38:44.396Z,6.62
2019-05-21T18:41:15.432Z,6.83
2019-05-21T18:43:49.858Z,6.30
2019-05-21T18:46:18.611Z,6.22
2019-05-21T18:48:50.881Z,6.15
2019-05-21T18:51:21.602Z,6.78
2019-05-21T18:53:52.468Z,7.35
2019-05-21T18:56:23.293Z,8.18
2019-05-21T18:58:54.035Z,13.70
2019-05-21T19:01:25.089Z,7.45
2019-05-21T19:03:55.721Z,7.45
2019-05-21T19:06:26.631Z,7.90
2019-05-21T19:08:57.087Z,7.30
2019-05-21T19:11:28.327Z,7.72
2019-05-21T19:13:59.239Z,7.92
2019-05-21T19:16:30.168Z,7.87
2019-05-21T19:19:01.225Z,7.92
2019-05-21T19:21:32.199Z,8.35
2019-05-21T19:24:03.141Z,9.33
2019-05-21T19:26:34.179Z,9.60
2019-05-21T19:29:07.760Z,9.53
2019-05-21T19:31:37.455Z,9.05
2019-05-21T19:34:08.349Z,9.35
2019-05-21T19:36:39.072Z,9.40
2019-05-21T19:39:09.685Z,9.68
2019-05-21T19:41:40.687Z,8.93
2019-05-21T19:44:11.535Z,11.48
2019-05-21T19:46:42.385Z,9.20
2019-05-21T19:49:14.270Z,9.20
2019-05-21T19:51:45.234Z,9.25
2019-05-21T19:54:16.140Z,9.18
2019-05-21T19:56:47.005Z,9.58
2019-05-21T19:59:17.793Z,9.63
2019-05-21T20:01:49.356Z,8.60
2019-05-21T20:04:20.578Z,9.40
2019-05-21T20:06:51.318Z,8.50
2019-05-21T20:09:26.810Z,7.87
2019-05-21T20:11:56.889Z,8.23
2019-05-21T20:14:28.784Z,8.60
2019-05-21T20:17:00.232Z,8.10
2019-05-21T20:19:31.728Z,9.08
2019-05-21T20:22:02.595Z,7.95
2019-05-21T20:24:33.343Z,7.60
2019-05-21T20:27:04.359Z,7.17
2019-05-21T20:29:35.615Z,6.80
2019-05-21T20:32:07.411Z,6.30
2019-05-21T20:34:40.749Z,5.62
2019-05-21T20:37:13.491Z,6.20
2019-05-21T20:39:45.405Z,6.28
2019-05-21T20:42:19.000Z,5.95
2019-05-21T20:44:50.273Z,6.17
2019-05-21T20:47:21.376Z,4.50
2019-05-21T20:49:55.289Z,4.37
2019-05-21T20:52:26.369Z,5.15
2019-05-21T20:54:58.594Z,5.33
2019-05-21T20:57:29.427Z,4.50
2019-05-21T21:00:00.363Z,6.93
2019-05-21T21:02:32.945Z,6.17
2019-05-21T21:05:06.125Z,9.50
2019-05-21T21:07:38.889Z,7.90
2019-05-21T21:10:12.634Z,8.03
2019-05-21T21:12:44.215Z,7.70
2019-05-21T21:15:16.328Z,7.97
2019-05-21T21:17:47.199Z,8.70
2019-05-21T21:20:18.550Z,9.67
2019-05-21T21:22:57.494Z,8.87
2019-05-21T21:25:28.999Z,9.27
2019-05-21T21:28:00.701Z,7.73
2019-05-21T21:30:32.027Z,8.70
2019-05-21T21:33:03.441Z,8.90
2019-05-21T21:35:34.945Z,9.33
2019-05-21T21:38:07.527Z,10.07
2019-05-21T21:40:38.804Z,10.13
2019-05-21T21:43:10.014Z,10.17
2019-05-21T21:45:41.290Z,10.50
2019-05-21T21:48:12.758Z,11.30
2019-05-21T21:50:43.932Z,13.57
2019-05-21T21:53:15.194Z,17.37
2019-05-21T21:55:46.243Z,15.67
2019-05-21T21:58:18.320Z,11.23
2019-05-21T22:01:10.235Z,13.77
2019-05-21T22:03:43.255Z,11.80
2019-05-21T22:06:17.449Z,12.37
2019-05-21T22:08:51.254Z,12.57
2019-05-21T22:11:22.033Z,12.63
2019-05-21T22:13:52.611Z,13.10
2019-05-21T22:16:26.660Z,13.57
2019-05-21T22:18:57.820Z,96.80
2019-05-21T22:21:29.288Z,14.47
2019-05-21T22:24:00.292Z,13.73
2019-05-21T22:26:32.020Z,12.70
2019-05-21T22:29:05.265Z,12.47
2019-05-21T22:31:39.011Z,13.60
2019-05-21T22:34:10.821Z,13.10
2019-05-21T22:36:41.619Z,11.70
2019-05-21T22:39:20.522Z,14.33
2019-05-21T22:42:01.495Z,14.43
2019-05-21T22:44:33.053Z,14.50
2019-05-21T22:47:05.607Z,15.77
2019-05-21T22:49:37.405Z,15.70
2019-05-21T22:52:08.693Z,16.50
2019-05-21T22:54:39.505Z,18.80
2019-05-21T22:57:10.559Z,19.27
2019-05-21T22:59:41.448Z,21.73
2019-05-21T23:02:14.207Z,21.67
2019-05-21T23:04:45.432Z,21.07
2019-05-21T23:07:16.552Z,23.87
2019-05-21T23:09:47.490Z,27.17
2019-05-21T23:12:19.021Z,26.77
2019-05-21T23:14:50.189Z,26.63
2019-05-21T23:17:20.932Z,30.57
2019-05-21T23:19:56.151Z,33.03
2019-05-21T23:22:28.010Z,33.73
2019-05-21T23:24:59.338Z,33.70
2019-05-21T23:27:30.596Z,36.73
2019-05-21T23:30:02.464Z,35.57
2019-05-21T23:32:33.882Z,40.47
2019-05-21T23:35:08.152Z,40.77
2019-05-21T23:37:41.666Z,38.07
2019-05-21T23:40:13.830Z,41.27
2019-05-21T23:42:44.300Z,45.67
2019-05-21T23:45:15.854Z,45.90
2019-05-21T23:47:46.850Z,44.20
2019-05-21T23:50:18.734Z,44.63
2019-05-21T23:52:49.772Z,44.57
2019-05-21T23:55:20.820Z,46.53
2019-05-21T23:57:52.394Z,46.10
